sensor_id;sensor_type;location;lat;lon;timestamp;P1;durP1;ratioP1;P2;durP2;ratioP2
46318;SDS011;32042;50.916;2.926;2022-11-23T00:00:11;3.70;;;1.37;;
46318;SDS011;32042;50.916;2.926;2022-11-23T00:02:37;3.80;;;1.40;;
46318;SDS011;32042;50.916;2.926;2022-11-23T00:05:03;3.60;;;1.20;;
46318;SDS011;32042;50.916;2.926;2022-11-23T00:07:29;4.10;;;1.50;;
46318;SDS011;32042;50.916;2.926;2022-11-23T00:09:55;4.03;;;1.03;;
46318;SDS011;32042;50.916;2.926;2022-11-23T00:12:20;2.17;;;1.10;;
46318;SDS011;32042;50.916;2.926;2022-11-23T00:14:46;4.30;;;1.30;;
46318;SDS011;32042;50.916;2.926;2022-11-23T00:17:11;2.13;;;1.40;;
46318;SDS011;32042;50.916;2.926;2022-11-23T00:19:37;2.03;;;1.47;;
46318;SDS011;32042;50.916;2.926;2022-11-23T00:22:03;5.60;;;1.60;;
46318;SDS011;32042;50.916;2.926;2022-11-23T00:24:29;2.20;;;1.13;;
46318;SDS011;32042;50.916;2.926;2022-11-23T00:26:54;4.30;;;1.97;;
46318;SDS011;32042;50.916;2.926;2022-11-23T00:29:20;3.63;;;1.37;;
46318;SDS011;32042;50.916;2.926;2022-11-23T00:31:45;2.57;;;1.33;;
46318;SDS011;32042;50.916;2.926;2022-11-23T00:34:11;3.50;;;1.33;;
46318;SDS011;32042;50.916;2.926;2022-11-23T00:36:37;2.77;;;1.60;;
46318;SDS011;32042;50.916;2.926;2022-11-23T00:39:02;6.27;;;1.80;;
46318;SDS011;32042;50.916;2.926;2022-11-23T00:41:28;5.57;;;2.10;;
46318;SDS011;32042;50.916;2.926;2022-11-23T00:43:54;4.63;;;2.17;;
46318;SDS011;32042;50.916;2.926;2022-11-23T00:46:20;5.10;;;2.03;;
46318;SDS011;32042;50.916;2.926;2022-11-23T00:48:48;4.77;;;1.93;;
46318;SDS011;32042;50.916;2.926;2022-11-23T00:51:20;6.17;;;2.13;;
46318;SDS011;32042;50.916;2.926;2022-11-23T00:53:51;6.03;;;1.80;;
46318;SDS011;32042;50.916;2.926;2022-11-23T00:56:17;6.13;;;2.30;;
46318;SDS011;32042;50.916;2.926;2022-11-23T00:58:47;4.47;;;2.13;;
46318;SDS011;32042;50.916;2.926;2022-11-23T01:01:14;7.90;;;2.07;;
46318;SDS011;32042;50.916;2.926;2022-11-23T01:03:43;5.40;;;2.00;;
46318;SDS011;32042;50.916;2.926;2022-11-23T01:06:11;6.63;;;1.90;;
46318;SDS011;32042;50.916;2.926;2022-11-23T01:08:38;5.40;;;1.83;;
46318;SDS011;32042;50.916;2.926;2022-11-23T01:11:05;6.83;;;1.97;;
46318;SDS011;32042;50.916;2.926;2022-11-23T01:13:34;4.77;;;1.90;;
46318;SDS011;32042;50.916;2.926;2022-11-23T01:16:00;6.43;;;1.93;;
46318;SDS011;32042;50.916;2.926;2022-11-23T01:18:26;7.47;;;2.10;;
46318;SDS011;32042;50.916;2.926;2022-11-23T01:20:52;6.07;;;2.00;;
46318;SDS011;32042;50.916;2.926;2022-11-23T01:23:18;4.60;;;1.73;;
46318;SDS011;32042;50.916;2.926;2022-11-23T01:25:44;5.83;;;1.97;;
46318;SDS011;32042;50.916;2.926;2022-11-23T01:28:10;5.63;;;2.10;;
46318;SDS011;32042;50.916;2.926;2022-11-23T01:30:35;7.07;;;2.00;;
46318;SDS011;32042;50.916;2.926;2022-11-23T01:33:02;5.37;;;1.70;;
46318;SDS011;32042;50.916;2.926;2022-11-23T01:35:28;6.13;;;1.70;;
46318;SDS011;32042;50.916;2.926;2022-11-23T01:37:54;7.37;;;1.73;;
46318;SDS011;32042;50.916;2.926;2022-11-23T01:40:20;3.93;;;2.00;;
46318;SDS011;32042;50.916;2.926;2022-11-23T01:42:53;7.97;;;2.00;;
46318;SDS011;32042;50.916;2.926;2022-11-23T01:45:37;4.90;;;1.60;;
46318;SDS011;32042;50.916;2.926;2022-11-23T01:48:07;7.03;;;1.83;;
46318;SDS011;32042;50.916;2.926;2022-11-23T01:50:43;5.13;;;1.80;;
46318;SDS011;32042;50.916;2.926;2022-11-23T01:53:12;7.60;;;1.83;;
46318;SDS011;32042;50.916;2.926;2022-11-23T01:55:39;5.63;;;1.77;;
46318;SDS011;32042;50.916;2.926;2022-11-23T01:58:06;6.93;;;1.80;;
46318;SDS011;32042;50.916;2.926;2022-11-23T02:00:34;5.33;;;1.97;;
46318;SDS011;32042;50.916;2.926;2022-11-23T02:03:00;6.97;;;2.17;;
46318;SDS011;32042;50.916;2.926;2022-11-23T02:05:29;10.77;;;2.23;;
46318;SDS011;32042;50.916;2.926;2022-11-23T02:07:59;9.33;;;2.20;;
46318;SDS011;32042;50.916;2.926;2022-11-23T02:10:26;10.20;;;2.20;;
46318;SDS011;32042;50.916;2.926;2022-11-23T02:12:54;6.33;;;2.57;;
46318;SDS011;32042;50.916;2.926;2022-11-23T02:15:20;6.23;;;1.90;;
46318;SDS011;32042;50.916;2.926;2022-11-23T02:17:45;6.03;;;2.13;;
46318;SDS011;32042;50.916;2.926;2022-11-23T02:20:12;6.77;;;2.23;;
46318;SDS011;32042;50.916;2.926;2022-11-23T02:22:47;5.93;;;2.00;;
46318;SDS011;32042;50.916;2.926;2022-11-23T02:28:14;10.67;;;2.33;;
46318;SDS011;32042;50.916;2.926;2022-11-23T02:30:47;12.47;;;2.30;;
46318;SDS011;32042;50.916;2.926;2022-11-23T02:33:15;11.90;;;4.10;;
46318;SDS011;32042;50.916;2.926;2022-11-23T02:35:47;10.90;;;2.17;;
46318;SDS011;32042;50.916;2.926;2022-11-23T02:38:15;9.40;;;2.20;;
46318;SDS011;32042;50.916;2.926;2022-11-23T02:40:42;9.10;;;2.00;;
46318;SDS011;32042;50.916;2.926;2022-11-23T02:43:09;7.27;;;2.37;;
46318;SDS011;32042;50.916;2.926;2022-11-23T02:48:16;12.87;;;3.17;;
46318;SDS011;32042;50.916;2.926;2022-11-23T02:50:43;9.57;;;3.03;;
46318;SDS011;32042;50.916;2.926;2022-11-23T02:53:10;10.23;;;2.30;;
46318;SDS011;32042;50.916;2.926;2022-11-23T02:55:37;12.37;;;2.53;;
46318;SDS011;32042;50.916;2.926;2022-11-23T02:58:03;8.20;;;2.40;;
46318;SDS011;32042;50.916;2.926;2022-11-23T03:00:31;13.90;;;2.83;;
46318;SDS011;32042;50.916;2.926;2022-11-23T03:02:56;13.67;;;2.77;;
46318;SDS011;32042;50.916;2.926;2022-11-23T03:05:24;10.43;;;2.17;;
46318;SDS011;32042;50.916;2.926;2022-11-23T03:07:50;11.43;;;2.00;;
46318;SDS011;32042;50.916;2.926;2022-11-23T03:10:16;9.57;;;2.63;;
46318;SDS011;32042;50.916;2.926;2022-11-23T03:12:42;9.60;;;2.50;;
46318;SDS011;32042;50.916;2.926;2022-11-23T03:15:08;11.27;;;2.00;;
46318;SDS011;32042;50.916;2.926;2022-11-23T03:17:34;7.97;;;1.90;;
46318;SDS011;32042;50.916;2.926;2022-11-23T03:20:00;13.57;;;2.50;;
46318;SDS011;32042;50.916;2.926;2022-11-23T03:22:25;11.23;;;1.93;;
46318;SDS011;32042;50.916;2.926;2022-11-23T03:24:51;9.63;;;2.30;;
46318;SDS011;32042;50.916;2.926;2022-11-23T03:27:17;12.80;;;2.80;;
46318;SDS011;32042;50.916;2.926;2022-11-23T03:29:43;12.07;;;2.10;;
46318;SDS011;32042;50.916;2.926;2022-11-23T03:32:08;10.43;;;1.90;;
46318;SDS011;32042;50.916;2.926;2022-11-23T03:34:34;8.63;;;1.73;;
46318;SDS011;32042;50.916;2.926;2022-11-23T03:37:00;8.83;;;1.90;;
46318;SDS011;32042;50.916;2.926;2022-11-23T03:39:26;9.50;;;2.63;;
46318;SDS011;32042;50.916;2.926;2022-11-23T03:41:51;8.73;;;1.97;;
46318;SDS011;32042;50.916;2.926;2022-11-23T03:44:17;10.33;;;2.30;;
46318;SDS011;32042;50.916;2.926;2022-11-23T03:46:43;9.63;;;2.13;;
46318;SDS011;32042;50.916;2.926;2022-11-23T03:49:08;15.43;;;1.90;;
46318;SDS011;32042;50.916;2.926;2022-11-23T03:51:34;13.40;;;1.83;;
46318;SDS011;32042;50.916;2.926;2022-11-23T03:54:00;9.90;;;2.57;;
46318;SDS011;32042;50.916;2.926;2022-11-23T03:56:25;9.53;;;2.43;;
46318;SDS011;32042;50.916;2.926;2022-11-23T03:58:51;10.70;;;1.90;;
46318;SDS011;32042;50.916;2.926;2022-11-23T04:01:17;12.93;;;2.47;;
46318;SDS011;32042;50.916;2.926;2022-11-23T04:03:42;15.87;;;2.57;;
46318;SDS011;32042;50.916;2.926;2022-11-23T04:06:08;13.17;;;1.90;;
46318;SDS011;32042;50.916;2.926;2022-11-23T04:08:34;11.13;;;1.90;;
46318;SDS011;32042;50.916;2.926;2022-11-23T04:10:59;10.10;;;2.53;;
46318;SDS011;32042;50.916;2.926;2022-11-23T04:13:25;10.37;;;2.27;;
46318;SDS011;32042;50.916;2.926;2022-11-23T04:15:51;11.97;;;2.10;;
46318;SDS011;32042;50.916;2.926;2022-11-23T04:18:16;12.97;;;1.97;;
46318;SDS011;32042;50.916;2.926;2022-11-23T04:20:42;8.00;;;1.97;;
46318;SDS011;32042;50.916;2.926;2022-11-23T04:23:08;10.83;;;2.13;;
46318;SDS011;32042;50.916;2.926;2022-11-23T04:25:33;7.87;;;2.27;;
46318;SDS011;32042;50.916;2.926;2022-11-23T04:27:59;8.10;;;1.87;;
46318;SDS011;32042;50.916;2.926;2022-11-23T04:30:25;9.63;;;1.90;;
46318;SDS011;32042;50.916;2.926;2022-11-23T04:32:50;9.33;;;1.83;;
46318;SDS011;32042;50.916;2.926;2022-11-23T04:35:16;16.83;;;2.70;;
46318;SDS011;32042;50.916;2.926;2022-11-23T04:37:42;7.93;;;2.10;;
46318;SDS011;32042;50.916;2.926;2022-11-23T04:40:07;10.93;;;2.10;;
46318;SDS011;32042;50.916;2.926;2022-11-23T04:42:33;7.40;;;2.00;;
46318;SDS011;32042;50.916;2.926;2022-11-23T04:44:59;13.63;;;2.30;;
46318;SDS011;32042;50.916;2.926;2022-11-23T04:47:25;7.23;;;1.80;;
46318;SDS011;32042;50.916;2.926;2022-11-23T04:49:51;11.80;;;2.93;;
46318;SDS011;32042;50.916;2.926;2022-11-23T04:52:16;8.77;;;2.10;;
46318;SDS011;32042;50.916;2.926;2022-11-23T04:54:42;13.57;;;2.10;;
46318;SDS011;32042;50.916;2.926;2022-11-23T04:57:08;5.83;;;1.93;;
46318;SDS011;32042;50.916;2.926;2022-11-23T04:59:34;12.90;;;2.23;;
46318;SDS011;32042;50.916;2.926;2022-11-23T05:02:00;6.37;;;1.77;;
46318;SDS011;32042;50.916;2.926;2022-11-23T05:04:26;11.23;;;1.83;;
46318;SDS011;32042;50.916;2.926;2022-11-23T05:06:52;11.23;;;1.97;;
46318;SDS011;32042;50.916;2.926;2022-11-23T05:09:18;8.77;;;2.60;;
46318;SDS011;32042;50.916;2.926;2022-11-23T05:11:44;7.50;;;1.97;;
46318;SDS011;32042;50.916;2.926;2022-11-23T05:14:09;8.53;;;2.13;;
46318;SDS011;32042;50.916;2.926;2022-11-23T05:16:35;11.40;;;2.30;;
46318;SDS011;32042;50.916;2.926;2022-11-23T05:19:01;7.83;;;2.67;;
46318;SDS011;32042;50.916;2.926;2022-11-23T05:21:26;6.83;;;1.80;;
46318;SDS011;32042;50.916;2.926;2022-11-23T05:23:52;18.57;;;2.77;;
46318;SDS011;32042;50.916;2.926;2022-11-23T05:26:18;16.03;;;2.83;;
46318;SDS011;32042;50.916;2.926;2022-11-23T05:28:44;7.70;;;2.00;;
46318;SDS011;32042;50.916;2.926;2022-11-23T05:31:10;10.93;;;2.30;;
46318;SDS011;32042;50.916;2.926;2022-11-23T05:33:35;8.90;;;1.90;;
46318;SDS011;32042;50.916;2.926;2022-11-23T05:36:01;10.23;;;2.40;;
46318;SDS011;32042;50.916;2.926;2022-11-23T05:38:27;7.10;;;2.30;;
46318;SDS011;32042;50.916;2.926;2022-11-23T05:40:53;13.70;;;1.90;;
46318;SDS011;32042;50.916;2.926;2022-11-23T05:43:19;7.43;;;2.50;;
46318;SDS011;32042;50.916;2.926;2022-11-23T05:45:44;11.40;;;2.27;;
46318;SDS011;32042;50.916;2.926;2022-11-23T05:48:10;7.37;;;2.40;;
46318;SDS011;32042;50.916;2.926;2022-11-23T05:50:36;5.53;;;2.43;;
46318;SDS011;32042;50.916;2.926;2022-11-23T05:53:02;15.93;;;1.97;;
46318;SDS011;32042;50.916;2.926;2022-11-23T05:55:28;13.67;;;2.30;;
46318;SDS011;32042;50.916;2.926;2022-11-23T05:57:54;12.47;;;2.37;;
46318;SDS011;32042;50.916;2.926;2022-11-23T06:00:19;12.93;;;2.33;;
46318;SDS011;32042;50.916;2.926;2022-11-23T06:02:45;9.00;;;2.10;;
46318;SDS011;32042;50.916;2.926;2022-11-23T06:05:11;9.83;;;2.47;;
46318;SDS011;32042;50.916;2.926;2022-11-23T06:07:37;14.43;;;2.43;;
46318;SDS011;32042;50.916;2.926;2022-11-23T06:10:03;9.30;;;2.20;;
46318;SDS011;32042;50.916;2.926;2022-11-23T06:12:30;7.70;;;2.43;;
46318;SDS011;32042;50.916;2.926;2022-11-23T06:14:56;12.50;;;2.77;;
46318;SDS011;32042;50.916;2.926;2022-11-23T06:17:22;10.67;;;2.50;;
46318;SDS011;32042;50.916;2.926;2022-11-23T06:19:48;12.97;;;3.43;;
46318;SDS011;32042;50.916;2.926;2022-11-23T06:22:14;8.23;;;2.20;;
46318;SDS011;32042;50.916;2.926;2022-11-23T06:24:40;12.93;;;2.80;;
46318;SDS011;32042;50.916;2.926;2022-11-23T06:27:06;8.20;;;2.37;;
46318;SDS011;32042;50.916;2.926;2022-11-23T06:29:33;8.70;;;2.30;;
46318;SDS011;32042;50.916;2.926;2022-11-23T06:31:58;11.83;;;2.33;;
46318;SDS011;32042;50.916;2.926;2022-11-23T06:34:24;10.40;;;2.40;;
46318;SDS011;32042;50.916;2.926;2022-11-23T06:36:50;10.63;;;2.07;;
46318;SDS011;32042;50.916;2.926;2022-11-23T06:39:15;14.03;;;3.10;;
46318;SDS011;32042;50.916;2.926;2022-11-23T06:41:42;8.27;;;2.37;;
46318;SDS011;32042;50.916;2.926;2022-11-23T06:44:08;11.07;;;3.30;;
46318;SDS011;32042;50.916;2.926;2022-11-23T06:46:34;9.13;;;2.77;;
46318;SDS011;32042;50.916;2.926;2022-11-23T06:48:59;16.93;;;3.10;;
46318;SDS011;32042;50.916;2.926;2022-11-23T06:51:25;15.13;;;3.17;;
46318;SDS011;32042;50.916;2.926;2022-11-23T06:53:50;8.53;;;2.43;;
46318;SDS011;32042;50.916;2.926;2022-11-23T06:56:16;11.60;;;2.87;;
46318;SDS011;32042;50.916;2.926;2022-11-23T06:58:42;7.83;;;2.23;;
46318;SDS011;32042;50.916;2.926;2022-11-23T07:01:08;10.80;;;2.80;;
46318;SDS011;32042;50.916;2.926;2022-11-23T07:03:34;14.93;;;2.90;;
46318;SDS011;32042;50.916;2.926;2022-11-23T07:06:07;11.63;;;3.10;;
46318;SDS011;32042;50.916;2.926;2022-11-23T07:08:33;12.23;;;2.60;;
46318;SDS011;32042;50.916;2.926;2022-11-23T07:11:03;8.33;;;3.00;;
46318;SDS011;32042;50.916;2.926;2022-11-23T07:13:30;15.80;;;3.60;;
46318;SDS011;32042;50.916;2.926;2022-11-23T07:15:57;10.37;;;4.93;;
46318;SDS011;32042;50.916;2.926;2022-11-23T07:18:23;12.93;;;3.73;;
46318;SDS011;32042;50.916;2.926;2022-11-23T07:20:49;13.60;;;3.73;;
46318;SDS011;32042;50.916;2.926;2022-11-23T07:23:15;16.93;;;4.87;;
46318;SDS011;32042;50.916;2.926;2022-11-23T07:25:40;25.10;;;5.43;;
46318;SDS011;32042;50.916;2.926;2022-11-23T07:28:06;13.57;;;5.43;;
46318;SDS011;32042;50.916;2.926;2022-11-23T07:30:33;10.67;;;5.00;;
46318;SDS011;32042;50.916;2.926;2022-11-23T07:33:00;19.00;;;5.37;;
46318;SDS011;32042;50.916;2.926;2022-11-23T07:35:27;15.67;;;5.53;;
46318;SDS011;32042;50.916;2.926;2022-11-23T07:37:52;16.87;;;5.67;;
46318;SDS011;32042;50.916;2.926;2022-11-23T07:40:18;17.37;;;6.70;;
46318;SDS011;32042;50.916;2.926;2022-11-23T07:42:44;15.23;;;6.97;;
46318;SDS011;32042;50.916;2.926;2022-11-23T07:45:10;10.57;;;6.43;;
46318;SDS011;32042;50.916;2.926;2022-11-23T07:47:37;15.60;;;7.03;;
46318;SDS011;32042;50.916;2.926;2022-11-23T07:50:04;17.10;;;6.30;;
46318;SDS011;32042;50.916;2.926;2022-11-23T07:52:30;17.77;;;7.30;;
46318;SDS011;32042;50.916;2.926;2022-11-23T07:54:56;20.87;;;6.80;;
46318;SDS011;32042;50.916;2.926;2022-11-23T07:57:24;21.53;;;6.47;;
46318;SDS011;32042;50.916;2.926;2022-11-23T07:59:49;14.53;;;6.80;;
46318;SDS011;32042;50.916;2.926;2022-11-23T08:02:15;20.53;;;7.23;;
46318;SDS011;32042;50.916;2.926;2022-11-23T08:04:41;20.60;;;6.40;;
46318;SDS011;32042;50.916;2.926;2022-11-23T08:07:06;14.93;;;6.33;;
46318;SDS011;32042;50.916;2.926;2022-11-23T08:09:32;17.10;;;6.77;;
46318;SDS011;32042;50.916;2.926;2022-11-23T08:11:58;13.03;;;7.03;;
46318;SDS011;32042;50.916;2.926;2022-11-23T08:14:23;13.93;;;6.13;;
46318;SDS011;32042;50.916;2.926;2022-11-23T08:16:49;15.27;;;6.93;;
46318;SDS011;32042;50.916;2.926;2022-11-23T08:19:16;19.33;;;7.23;;
46318;SDS011;32042;50.916;2.926;2022-11-23T08:21:42;19.50;;;7.67;;
46318;SDS011;32042;50.916;2.926;2022-11-23T08:24:09;10.43;;;6.77;;
46318;SDS011;32042;50.916;2.926;2022-11-23T08:26:34;22.13;;;7.00;;
46318;SDS011;32042;50.916;2.926;2022-11-23T08:29:00;20.80;;;7.60;;
46318;SDS011;32042;50.916;2.926;2022-11-23T08:31:26;17.70;;;7.73;;
46318;SDS011;32042;50.916;2.926;2022-11-23T08:33:52;16.03;;;7.07;;
46318;SDS011;32042;50.916;2.926;2022-11-23T08:36:17;23.07;;;7.70;;
46318;SDS011;32042;50.916;2.926;2022-11-23T08:38:44;14.83;;;6.70;;
46318;SDS011;32042;50.916;2.926;2022-11-23T08:41:09;13.73;;;7.03;;
46318;SDS011;32042;50.916;2.926;2022-11-23T08:43:35;14.93;;;7.10;;
46318;SDS011;32042;50.916;2.926;2022-11-23T08:46:01;15.87;;;6.60;;
46318;SDS011;32042;50.916;2.926;2022-11-23T08:48:28;14.77;;;6.13;;
46318;SDS011;32042;50.916;2.926;2022-11-23T08:50:57;12.50;;;6.13;;
46318;SDS011;32042;50.916;2.926;2022-11-23T08:53:24;20.70;;;6.70;;
46318;SDS011;32042;50.916;2.926;2022-11-23T08:55:50;14.27;;;5.90;;
46318;SDS011;32042;50.916;2.926;2022-11-23T08:58:16;15.50;;;5.70;;
46318;SDS011;32042;50.916;2.926;2022-11-23T09:00:41;13.57;;;4.97;;
46318;SDS011;32042;50.916;2.926;2022-11-23T09:03:07;18.60;;;5.57;;
46318;SDS011;32042;50.916;2.926;2022-11-23T09:05:33;17.53;;;6.23;;
46318;SDS011;32042;50.916;2.926;2022-11-23T09:08:02;18.17;;;5.47;;
46318;SDS011;32042;50.916;2.926;2022-11-23T09:10:28;11.33;;;4.60;;
46318;SDS011;32042;50.916;2.926;2022-11-23T09:12:54;14.37;;;5.10;;
46318;SDS011;32042;50.916;2.926;2022-11-23T09:15:20;13.47;;;5.17;;
46318;SDS011;32042;50.916;2.926;2022-11-23T09:17:45;13.33;;;5.33;;
46318;SDS011;32042;50.916;2.926;2022-11-23T09:20:11;19.87;;;8.97;;
46318;SDS011;32042;50.916;2.926;2022-11-23T09:22:37;16.47;;;7.17;;
46318;SDS011;32042;50.916;2.926;2022-11-23T09:25:03;10.77;;;4.77;;
46318;SDS011;32042;50.916;2.926;2022-11-23T09:27:30;14.53;;;5.33;;
46318;SDS011;32042;50.916;2.926;2022-11-23T09:29:56;12.77;;;5.50;;
46318;SDS011;32042;50.916;2.926;2022-11-23T09:32:22;11.33;;;5.10;;
46318;SDS011;32042;50.916;2.926;2022-11-23T09:34:48;14.13;;;4.60;;
46318;SDS011;32042;50.916;2.926;2022-11-23T09:37:13;10.93;;;4.23;;
46318;SDS011;32042;50.916;2.926;2022-11-23T09:39:39;12.17;;;4.53;;
46318;SDS011;32042;50.916;2.926;2022-11-23T09:42:51;11.47;;;4.57;;
46318;SDS011;32042;50.916;2.926;2022-11-23T09:45:25;19.13;;;4.07;;
46318;SDS011;32042;50.916;2.926;2022-11-23T09:50:49;10.17;;;3.33;;
46318;SDS011;32042;50.916;2.926;2022-11-23T09:53:24;10.57;;;3.57;;
46318;SDS011;32042;50.916;2.926;2022-11-23T09:55:56;12.30;;;3.60;;
46318;SDS011;32042;50.916;2.926;2022-11-23T09:58:23;12.57;;;2.50;;
46318;SDS011;32042;50.916;2.926;2022-11-23T10:00:59;11.60;;;3.50;;
46318;SDS011;32042;50.916;2.926;2022-11-23T10:03:27;5.87;;;3.33;;
46318;SDS011;32042;50.916;2.926;2022-11-23T10:06:09;6.17;;;3.00;;
46318;SDS011;32042;50.916;2.926;2022-11-23T10:11:47;6.37;;;2.93;;
46318;SDS011;32042;50.916;2.926;2022-11-23T10:14:39;7.23;;;2.90;;
46318;SDS011;32042;50.916;2.926;2022-11-23T10:23:01;9.77;;;3.13;;
46318;SDS011;32042;50.916;2.926;2022-11-23T10:25:33;9.00;;;3.30;;
46318;SDS011;32042;50.916;2.926;2022-11-23T10:28:12;9.77;;;2.87;;
46318;SDS011;32042;50.916;2.926;2022-11-23T10:30:39;5.30;;;2.70;;
46318;SDS011;32042;50.916;2.926;2022-11-23T10:33:14;6.50;;;2.90;;
46318;SDS011;32042;50.916;2.926;2022-11-23T10:35:55;5.53;;;2.60;;
46318;SDS011;32042;50.916;2.926;2022-11-23T10:38:23;6.63;;;2.73;;
46318;SDS011;32042;50.916;2.926;2022-11-23T10:43:51;6.60;;;2.50;;
46318;SDS011;32042;50.916;2.926;2022-11-23T10:57:02;6.53;;;3.23;;
46318;SDS011;32042;50.916;2.926;2022-11-23T10:59:55;5.83;;;2.57;;
46318;SDS011;32042;50.916;2.926;2022-11-23T11:02:23;6.33;;;2.60;;
46318;SDS011;32042;50.916;2.926;2022-11-23T11:04:49;7.57;;;3.20;;
46318;SDS011;32042;50.916;2.926;2022-11-23T11:07:35;8.43;;;2.60;;
46318;SDS011;32042;50.916;2.926;2022-11-23T11:10:02;7.30;;;2.50;;
46318;SDS011;32042;50.916;2.926;2022-11-23T11:12:31;4.57;;;2.27;;
46318;SDS011;32042;50.916;2.926;2022-11-23T11:17:38;4.77;;;2.00;;
46318;SDS011;32042;50.916;2.926;2022-11-23T11:22:53;3.97;;;2.07;;
46318;SDS011;32042;50.916;2.926;2022-11-23T11:27:58;3.53;;;2.20;;
46318;SDS011;32042;50.916;2.926;2022-11-23T11:30:26;6.10;;;1.97;;
46318;SDS011;32042;50.916;2.926;2022-11-23T11:33:03;8.90;;;2.70;;
46318;SDS011;32042;50.916;2.926;2022-11-23T11:35:35;3.87;;;2.07;;
46318;SDS011;32042;50.916;2.926;2022-11-23T11:38:08;4.90;;;2.17;;
46318;SDS011;32042;50.916;2.926;2022-11-23T11:40:48;3.80;;;2.00;;
46318;SDS011;32042;50.916;2.926;2022-11-23T11:43:33;4.67;;;2.10;;
46318;SDS011;32042;50.916;2.926;2022-11-23T11:46:01;3.50;;;2.10;;
46318;SDS011;32042;50.916;2.926;2022-11-23T11:48:56;2.90;;;1.97;;
46318;SDS011;32042;50.916;2.926;2022-11-23T11:51:36;4.77;;;2.10;;
46318;SDS011;32042;50.916;2.926;2022-11-23T11:54:19;2.87;;;1.80;;
46318;SDS011;32042;50.916;2.926;2022-11-23T11:59:47;8.60;;;5.77;;
46318;SDS011;32042;50.916;2.926;2022-11-23T12:02:26;5.17;;;4.47;;
46318;SDS011;32042;50.916;2.926;2022-11-23T12:05:15;7.63;;;2.80;;
46318;SDS011;32042;50.916;2.926;2022-11-23T12:12:58;3.13;;;1.50;;
46318;SDS011;32042;50.916;2.926;2022-11-23T12:15:27;1.93;;;1.50;;
46318;SDS011;32042;50.916;2.926;2022-11-23T12:23:19;3.40;;;2.77;;
46318;SDS011;32042;50.916;2.926;2022-11-23T12:26:11;2.10;;;1.83;;
46318;SDS011;32042;50.916;2.926;2022-11-23T12:28:54;2.63;;;1.70;;
46318;SDS011;32042;50.916;2.926;2022-11-23T12:31:34;3.50;;;1.77;;
46318;SDS011;32042;50.916;2.926;2022-11-23T12:40:02;3.90;;;1.73;;
46318;SDS011;32042;50.916;2.926;2022-11-23T12:42:41;2.57;;;1.83;;
46318;SDS011;32042;50.916;2.926;2022-11-23T12:51:28;3.90;;;1.80;;
46318;SDS011;32042;50.916;2.926;2022-11-23T12:54:11;1.80;;;1.70;;
46318;SDS011;32042;50.916;2.926;2022-11-23T13:02:20;2.00;;;1.80;;
46318;SDS011;32042;50.916;2.926;2022-11-23T13:16:32;21.23;;;11.43;;
46318;SDS011;32042;50.916;2.926;2022-11-23T13:19:22;29.57;;;16.63;;
46318;SDS011;32042;50.916;2.926;2022-11-23T13:22:10;2.60;;;2.23;;
46318;SDS011;32042;50.916;2.926;2022-11-23T13:25:29;2.10;;;1.90;;
46318;SDS011;32042;50.916;2.926;2022-11-23T13:30:34;2.13;;;1.80;;
46318;SDS011;32042;50.916;2.926;2022-11-23T13:40:43;2.70;;;2.50;;
46318;SDS011;32042;50.916;2.926;2022-11-23T13:43:28;1.93;;;1.70;;
46318;SDS011;32042;50.916;2.926;2022-11-23T13:48:51;2.10;;;1.90;;
46318;SDS011;32042;50.916;2.926;2022-11-23T13:51:25;2.37;;;1.60;;
46318;SDS011;32042;50.916;2.926;2022-11-23T13:54:05;3.63;;;2.60;;
46318;SDS011;32042;50.916;2.926;2022-11-23T13:56:43;8.13;;;6.00;;
46318;SDS011;32042;50.916;2.926;2022-11-23T13:59:23;6.67;;;4.63;;
46318;SDS011;32042;50.916;2.926;2022-11-23T14:04:30;5.37;;;4.20;;
46318;SDS011;32042;50.916;2.926;2022-11-23T14:15:31;4.40;;;1.30;;
46318;SDS011;32042;50.916;2.926;2022-11-23T14:37:42;3.30;;;1.43;;
46318;SDS011;32042;50.916;2.926;2022-11-23T14:40:38;2.73;;;1.30;;
46318;SDS011;32042;50.916;2.926;2022-11-23T14:43:30;3.87;;;1.30;;
46318;SDS011;32042;50.916;2.926;2022-11-23T14:45:59;3.33;;;1.27;;
46318;SDS011;32042;50.916;2.926;2022-11-23T14:48:28;5.87;;;2.03;;
46318;SDS011;32042;50.916;2.926;2022-11-23T14:50:59;5.37;;;2.00;;
46318;SDS011;32042;50.916;2.926;2022-11-23T14:53:49;3.60;;;1.30;;
46318;SDS011;32042;50.916;2.926;2022-11-23T14:56:18;5.60;;;1.57;;
46318;SDS011;32042;50.916;2.926;2022-11-23T14:59:03;3.03;;;2.13;;
46318;SDS011;32042;50.916;2.926;2022-11-23T15:01:39;8.73;;;2.70;;
46318;SDS011;32042;50.916;2.926;2022-11-23T15:04:32;3.17;;;1.77;;
46318;SDS011;32042;50.916;2.926;2022-11-23T15:07:15;4.93;;;1.53;;
46318;SDS011;32042;50.916;2.926;2022-11-23T15:09:50;5.13;;;1.63;;
46318;SDS011;32042;50.916;2.926;2022-11-23T15:12:22;6.40;;;2.00;;
46318;SDS011;32042;50.916;2.926;2022-11-23T15:14:49;5.20;;;1.60;;
46318;SDS011;32042;50.916;2.926;2022-11-23T15:17:18;6.03;;;2.57;;
46318;SDS011;32042;50.916;2.926;2022-11-23T15:19:55;7.50;;;2.17;;
46318;SDS011;32042;50.916;2.926;2022-11-23T15:22:25;10.40;;;2.10;;
46318;SDS011;32042;50.916;2.926;2022-11-23T15:24:52;6.23;;;1.90;;
46318;SDS011;32042;50.916;2.926;2022-11-23T15:27:24;5.07;;;2.37;;
46318;SDS011;32042;50.916;2.926;2022-11-23T15:29:55;5.97;;;3.07;;
46318;SDS011;32042;50.916;2.926;2022-11-23T15:32:26;5.57;;;2.63;;
46318;SDS011;32042;50.916;2.926;2022-11-23T15:34:54;5.90;;;2.57;;
46318;SDS011;32042;50.916;2.926;2022-11-23T15:37:22;8.00;;;2.70;;
46318;SDS011;32042;50.916;2.926;2022-11-23T15:39:49;6.23;;;2.40;;
46318;SDS011;32042;50.916;2.926;2022-11-23T15:42:17;12.83;;;2.73;;
46318;SDS011;32042;50.916;2.926;2022-11-23T15:44:44;7.90;;;3.83;;
46318;SDS011;32042;50.916;2.926;2022-11-23T15:47:13;7.93;;;3.30;;
46318;SDS011;32042;50.916;2.926;2022-11-23T15:49:47;8.57;;;2.80;;
46318;SDS011;32042;50.916;2.926;2022-11-23T15:52:17;10.87;;;3.17;;
46318;SDS011;32042;50.916;2.926;2022-11-23T15:54:45;9.37;;;5.13;;
46318;SDS011;32042;50.916;2.926;2022-11-23T15:57:13;10.57;;;3.60;;
46318;SDS011;32042;50.916;2.926;2022-11-23T15:59:48;12.20;;;2.77;;
46318;SDS011;32042;50.916;2.926;2022-11-23T16:02:20;10.40;;;2.90;;
46318;SDS011;32042;50.916;2.926;2022-11-23T16:04:48;14.63;;;3.97;;
46318;SDS011;32042;50.916;2.926;2022-11-23T16:07:56;16.53;;;4.30;;
46318;SDS011;32042;50.916;2.926;2022-11-23T16:10:33;15.27;;;3.63;;
46318;SDS011;32042;50.916;2.926;2022-11-23T16:13:03;13.13;;;2.70;;
46318;SDS011;32042;50.916;2.926;2022-11-23T16:17:56;12.83;;;3.20;;
46318;SDS011;32042;50.916;2.926;2022-11-23T16:20:23;22.73;;;3.90;;
46318;SDS011;32042;50.916;2.926;2022-11-23T16:22:50;14.83;;;3.27;;
46318;SDS011;32042;50.916;2.926;2022-11-23T16:28:00;12.17;;;3.73;;
46318;SDS011;32042;50.916;2.926;2022-11-23T16:30:41;12.80;;;3.57;;
46318;SDS011;32042;50.916;2.926;2022-11-23T16:33:14;14.33;;;3.27;;
46318;SDS011;32042;50.916;2.926;2022-11-23T16:35:41;24.60;;;3.97;;
46318;SDS011;32042;50.916;2.926;2022-11-23T16:38:07;13.83;;;2.83;;
46318;SDS011;32042;50.916;2.926;2022-11-23T16:40:33;12.20;;;3.83;;
46318;SDS011;32042;50.916;2.926;2022-11-23T16:42:58;8.90;;;2.93;;
46318;SDS011;32042;50.916;2.926;2022-11-23T16:45:24;10.60;;;3.20;;
46318;SDS011;32042;50.916;2.926;2022-11-23T16:47:55;10.90;;;3.07;;
46318;SDS011;32042;50.916;2.926;2022-11-23T16:50:29;24.03;;;3.77;;
46318;SDS011;32042;50.916;2.926;2022-11-23T16:53:01;16.07;;;3.80;;
46318;SDS011;32042;50.916;2.926;2022-11-23T16:55:36;16.10;;;5.37;;
46318;SDS011;32042;50.916;2.926;2022-11-23T16:58:02;35.33;;;14.40;;
46318;SDS011;32042;50.916;2.926;2022-11-23T17:00:28;36.03;;;13.57;;
46318;SDS011;32042;50.916;2.926;2022-11-23T17:02:54;16.63;;;6.27;;